createdAt,value
2023-07-25T05:04:34.957Z,0
2023-07-25T05:09:35.907Z,0
2023-07-25T05:14:37.080Z,0
2023-07-25T05:19:38.175Z,0
2023-07-25T05:24:39.172Z,0
2023-07-25T05:29:40.208Z,0
2023-07-25T05:34:41.744Z,0
2023-07-25T05:39:42.718Z,0
2023-07-25T05:44:43.749Z,0
2023-07-25T05:49:44.781Z,0
2023-07-25T05:54:45.820Z,0
2023-07-25T05:59:46.835Z,49.5
2023-07-25T06:04:47.976Z,81
2023-07-25T06:09:49.097Z,68.9
2023-07-25T06:14:50.005Z,59.8
2023-07-25T06:19:51.242Z,51.2
2023-07-25T06:24:52.396Z,50.6
2023-07-25T06:29:53.932Z,77.1
2023-07-25T06:34:55.404Z,74
2023-07-25T06:39:56.478Z,46.4
2023-07-25T06:44:57.594Z,50.5
2023-07-25T06:49:58.569Z,38.5
2023-07-25T06:54:59.669Z,34.5
2023-07-25T07:00:00.920Z,26.4
2023-07-25T07:05:08.679Z,49.5
2023-07-25T07:10:16.603Z,49.4
2023-07-25T07:15:17.715Z,39.5
2023-07-25T07:20:18.824Z,48
2023-07-25T07:25:20.122Z,77.3
2023-07-25T07:30:21.463Z,102.7
2023-07-25T07:35:22.646Z,108.2
2023-07-25T07:40:23.888Z,196.3
2023-07-25T07:45:24.811Z,195
2023-07-25T07:50:25.701Z,178.9
2023-07-25T07:55:27.016Z,134.3
2023-07-25T08:00:28.077Z,164.9
2023-07-25T08:05:29.135Z,223.3
2023-07-25T08:10:30.544Z,203.8
2023-07-25T08:15:31.669Z,223.5
2023-07-25T08:20:32.610Z,291.4
2023-07-25T08:25:33.848Z,156.2
2023-07-25T08:30:34.976Z,126
2023-07-25T08:35:36.194Z,125.4
2023-07-25T08:40:37.313Z,172.3
2023-07-25T08:45:38.416Z,124.3
2023-07-25T08:50:39.392Z,117.6
2023-07-25T08:55:40.463Z,91.9
2023-07-25T09:00:41.363Z,90.7
2023-07-25T09:05:42.456Z,115.3
2023-07-25T09:10:43.471Z,181.2
2023-07-25T09:15:44.583Z,228.8
2023-07-25T09:20:46.808Z,307.2
2023-07-25T09:25:47.924Z,284.8
2023-07-25T09:30:49.486Z,273.1
2023-07-25T09:35:50.937Z,577.1
2023-07-25T09:40:52.055Z,386
2023-07-25T09:45:53.245Z,503.5
2023-07-25T09:50:54.590Z,187.6
2023-07-25T09:55:55.616Z,304.7
2023-07-25T10:00:56.788Z,197.5
2023-07-25T10:05:58.004Z,281.7
2023-07-25T10:10:59.188Z,306.2
2023-07-25T10:16:00.611Z,259.3
2023-07-25T10:21:02.652Z,460.9
2023-07-25T10:26:04.313Z,162.2
2023-07-25T10:31:05.777Z,259.7
2023-07-25T10:36:07.137Z,171
2023-07-25T10:41:08.683Z,150.3
2023-07-25T10:46:10.287Z,115.9
2023-07-25T10:51:11.177Z,112.9
2023-07-25T10:56:12.534Z,149.4
2023-07-25T11:01:13.704Z,281.9
2023-07-25T11:06:15.124Z,277.4
2023-07-25T11:11:16.673Z,589.5
2023-07-25T11:16:17.794Z,607.9
2023-07-25T11:21:18.874Z,195.5
2023-07-25T11:26:20.015Z,135.3
2023-07-25T11:31:21.352Z,172.1
2023-07-25T11:36:22.457Z,369.3
2023-07-25T11:41:23.883Z,245
2023-07-25T11:46:25.189Z,209.8
2023-07-25T11:51:26.353Z,549.5
2023-07-25T11:56:27.747Z,613.1
2023-07-25T12:01:30.691Z,229.4
2023-07-25T12:06:32.889Z,574.3
2023-07-25T12:11:34.724Z,290.5
2023-07-25T12:16:36.793Z,263.1
2023-07-25T12:21:38.776Z,610.8
2023-07-25T12:26:40.117Z,607.6
2023-07-25T12:31:41.314Z,248.1
2023-07-25T12:36:42.449Z,337.9
2023-07-25T12:41:44.016Z,219.1
2023-07-25T12:46:45.546Z,608.6
2023-07-25T12:51:47.464Z,592
2023-07-25T12:56:49.018Z,593.4
2023-07-25T13:01:50.781Z,370.8
2023-07-25T13:06:52.347Z,93.2
2023-07-25T13:11:53.932Z,86.1
2023-07-25T13:16:55.037Z,67.8
2023-07-25T13:21:56.556Z,62.7
2023-07-25T13:26:58.180Z,53.3
2023-07-25T13:31:59.292Z,81.2
2023-07-25T13:37:00.442Z,102.3
2023-07-25T13:42:01.723Z,107.1
2023-07-25T13:47:03.671Z,88.6
2023-07-25T13:52:05.638Z,70.9
2023-07-25T14:02:08.880Z,54.8
2023-07-25T14:07:10.447Z,54
2023-07-25T14:12:11.717Z,55.2
2023-07-25T14:17:13.061Z,117
2023-07-25T14:22:15.493Z,218.5
2023-07-25T14:27:17.330Z,340.3
2023-07-25T14:32:22.088Z,610.2
2023-07-25T14:37:23.528Z,572.6
2023-07-25T14:42:26.164Z,495.2
2023-07-25T14:47:27.409Z,218.5
2023-07-25T14:52:29.407Z,187.3
2023-07-25T14:57:30.580Z,176.2
2023-07-25T15:02:35.884Z,160.1
2023-07-25T15:07:37.271Z,152.2
2023-07-25T15:12:39.364Z,92.8
2023-07-25T15:17:40.784Z,64
2023-07-25T15:22:42.200Z,54.2
2023-07-25T15:27:43.446Z,30.9
2023-07-25T15:32:44.901Z,25.1
2023-07-25T15:37:45.881Z,24
2023-07-25T15:42:47.497Z,22
2023-07-25T15:47:49.043Z,22.9
2023-07-25T15:52:50.463Z,26.2
2023-07-25T15:57:51.723Z,30.1
2023-07-25T16:02:54.510Z,31.8
2023-07-25T16:07:55.781Z,40.8
2023-07-25T16:13:00.253Z,54
2023-07-25T16:18:05.678Z,63.7
2023-07-25T16:23:07.283Z,78.2
2023-07-25T16:28:08.339Z,105.7
2023-07-25T16:33:09.924Z,101.8
2023-07-25T16:38:11.475Z,97.4
2023-07-25T16:43:13.876Z,76.4
2023-07-25T16:48:16.489Z,42.2
2023-07-25T16:53:19.030Z,33.7
2023-07-25T16:58:20.377Z,53.5
2023-07-25T17:03:22.626Z,30
2023-07-25T17:08:24.361Z,23.6
2023-07-25T17:13:25.350Z,41.9
2023-07-25T17:18:26.467Z,55.3
2023-07-25T17:23:29.465Z,51.8
2023-07-25T17:28:30.750Z,44.4
2023-07-25T17:33:33.045Z,48.2
2023-07-25T17:38:35.132Z,40.5
2023-07-25T17:43:36.716Z,32.7
2023-07-25T17:48:38.001Z,32.5
2023-07-25T17:53:39.365Z,32.4
2023-07-25T17:58:40.540Z,37.1
2023-07-25T18:03:42.053Z,31.9
2023-07-25T18:08:44.288Z,21.4
2023-07-25T18:13:46.324Z,20.3
2023-07-25T18:18:47.596Z,18.4
2023-07-25T18:23:50.699Z,13
2023-07-25T18:28:51.721Z,14.7
2023-07-25T18:33:53.023Z,12.1
2023-07-25T18:38:54.188Z,11.3
2023-07-25T18:43:56.017Z,10.6
2023-07-25T18:48:57.101Z,9.7
2023-07-25T18:53:58.076Z,8.9
2023-07-25T18:59:00.200Z,8.6
2023-07-25T19:04:04.611Z,7.6
2023-07-25T19:09:05.959Z,8.3
2023-07-25T19:14:07.319Z,9.6
2023-07-25T19:19:08.601Z,7.5
2023-07-25T19:24:12.783Z,8
2023-07-25T19:29:13.872Z,3
2023-07-25T19:34:15.053Z,8.2
2023-07-25T19:39:18.041Z,8.2
2023-07-25T19:44:19.491Z,8.2
2023-07-25T19:49:20.722Z,8.2
2023-07-25T19:54:24.477Z,8.2
2023-07-25T19:59:26.438Z,8.2
2023-07-25T20:04:28.832Z,8.2
2023-07-25T20:09:30.809Z,8.2
2023-07-25T20:14:33.194Z,8.2
2023-07-25T20:19:35.149Z,0
2023-07-25T20:24:37.714Z,0
2023-07-25T20:29:38.952Z,0
2023-07-25T20:34:41.058Z,0
2023-07-25T20:39:42.709Z,0
2023-07-25T20:44:44.386Z,0
2023-07-25T20:49:45.667Z,0
2023-07-25T20:54:47.389Z,0
2023-07-25T20:59:48.392Z,0
